sensor_id;sensor_type;location;lat;lon;timestamp;P1;durP1;ratioP1;P2;durP2;ratioP2
54977;SDS011;40873;47.522;19.106;2023-11-18T00:00:00;7.57;;;5.18;;
54977;SDS011;40873;47.522;19.106;2023-11-18T00:02:27;7.55;;;5.20;;
54977;SDS011;40873;47.522;19.106;2023-11-18T00:04:55;6.45;;;4.55;;
54977;SDS011;40873;47.522;19.106;2023-11-18T00:07:22;6.93;;;4.40;;
54977;SDS011;40873;47.522;19.106;2023-11-18T00:09:49;9.27;;;4.82;;
54977;SDS011;40873;47.522;19.106;2023-11-18T00:12:16;8.32;;;4.93;;
54977;SDS011;40873;47.522;19.106;2023-11-18T00:14:43;9.90;;;5.10;;
54977;SDS011;40873;47.522;19.106;2023-11-18T00:17:12;8.95;;;5.43;;
54977;SDS011;40873;47.522;19.106;2023-11-18T00:19:39;7.10;;;4.55;;
54977;SDS011;40873;47.522;19.106;2023-11-18T00:22:06;9.85;;;6.05;;
54977;SDS011;40873;47.522;19.106;2023-11-18T00:24:33;8.60;;;4.05;;
54977;SDS011;40873;47.522;19.106;2023-11-18T00:27:01;9.88;;;5.70;;
54977;SDS011;40873;47.522;19.106;2023-11-18T00:29:34;7.37;;;4.60;;
54977;SDS011;40873;47.522;19.106;2023-11-18T00:32:02;8.15;;;5.30;;
54977;SDS011;40873;47.522;19.106;2023-11-18T00:34:30;9.82;;;5.63;;
54977;SDS011;40873;47.522;19.106;2023-11-18T00:36:57;8.27;;;5.60;;
54977;SDS011;40873;47.522;19.106;2023-11-18T00:39:24;8.45;;;5.57;;
54977;SDS011;40873;47.522;19.106;2023-11-18T00:41:52;9.23;;;5.70;;
54977;SDS011;40873;47.522;19.106;2023-11-18T00:44:19;9.02;;;6.13;;
54977;SDS011;40873;47.522;19.106;2023-11-18T00:46:46;9.30;;;5.82;;
54977;SDS011;40873;47.522;19.106;2023-11-18T00:49:13;13.32;;;7.88;;
54977;SDS011;40873;47.522;19.106;2023-11-18T00:51:40;11.02;;;6.22;;
54977;SDS011;40873;47.522;19.106;2023-11-18T00:54:10;9.27;;;6.32;;
54977;SDS011;40873;47.522;19.106;2023-11-18T00:56:38;10.48;;;5.75;;
54977;SDS011;40873;47.522;19.106;2023-11-18T00:59:04;9.38;;;6.35;;
54977;SDS011;40873;47.522;19.106;2023-11-18T01:01:33;9.73;;;5.95;;
54977;SDS011;40873;47.522;19.106;2023-11-18T01:04:00;7.93;;;5.75;;
54977;SDS011;40873;47.522;19.106;2023-11-18T01:06:27;9.18;;;5.65;;
54977;SDS011;40873;47.522;19.106;2023-11-18T01:08:54;8.00;;;5.55;;
54977;SDS011;40873;47.522;19.106;2023-11-18T01:11:21;8.75;;;6.07;;
54977;SDS011;40873;47.522;19.106;2023-11-18T01:13:49;8.88;;;6.10;;
54977;SDS011;40873;47.522;19.106;2023-11-18T01:16:17;9.38;;;6.03;;
54977;SDS011;40873;47.522;19.106;2023-11-18T01:18:44;8.73;;;6.00;;
54977;SDS011;40873;47.522;19.106;2023-11-18T01:21:12;8.70;;;6.05;;
54977;SDS011;40873;47.522;19.106;2023-11-18T01:23:39;10.20;;;5.93;;
54977;SDS011;40873;47.522;19.106;2023-11-18T01:26:11;9.10;;;5.55;;
54977;SDS011;40873;47.522;19.106;2023-11-18T01:28:39;10.73;;;6.57;;
54977;SDS011;40873;47.522;19.106;2023-11-18T01:31:09;11.70;;;6.43;;
54977;SDS011;40873;47.522;19.106;2023-11-18T01:33:37;9.07;;;6.07;;
54977;SDS011;40873;47.522;19.106;2023-11-18T01:36:11;8.85;;;6.00;;
54977;SDS011;40873;47.522;19.106;2023-11-18T01:38:38;10.55;;;6.13;;
54977;SDS011;40873;47.522;19.106;2023-11-18T01:41:06;10.50;;;6.38;;
54977;SDS011;40873;47.522;19.106;2023-11-18T01:43:34;9.98;;;6.22;;
54977;SDS011;40873;47.522;19.106;2023-11-18T01:46:05;7.60;;;5.47;;
54977;SDS011;40873;47.522;19.106;2023-11-18T01:48:37;10.57;;;6.07;;
54977;SDS011;40873;47.522;19.106;2023-11-18T01:51:04;9.63;;;5.63;;
54977;SDS011;40873;47.522;19.106;2023-11-18T01:53:34;8.20;;;5.55;;
54977;SDS011;40873;47.522;19.106;2023-11-18T01:56:05;9.57;;;6.45;;
54977;SDS011;40873;47.522;19.106;2023-11-18T01:58:33;8.63;;;5.45;;
54977;SDS011;40873;47.522;19.106;2023-11-18T02:01:02;10.27;;;5.35;;
54977;SDS011;40873;47.522;19.106;2023-11-18T02:03:34;17.05;;;7.43;;
54977;SDS011;40873;47.522;19.106;2023-11-18T02:06:02;8.52;;;5.25;;
54977;SDS011;40873;47.522;19.106;2023-11-18T02:08:40;7.78;;;5.05;;
54977;SDS011;40873;47.522;19.106;2023-11-18T02:11:30;7.88;;;4.82;;
54977;SDS011;40873;47.522;19.106;2023-11-18T02:14:08;9.63;;;5.10;;
54977;SDS011;40873;47.522;19.106;2023-11-18T02:16:40;7.95;;;5.32;;
54977;SDS011;40873;47.522;19.106;2023-11-18T02:19:12;9.82;;;5.72;;
54977;SDS011;40873;47.522;19.106;2023-11-18T02:21:54;10.20;;;5.05;;
54977;SDS011;40873;47.522;19.106;2023-11-18T02:24:30;8.50;;;5.10;;
54977;SDS011;40873;47.522;19.106;2023-11-18T02:27:06;9.85;;;5.13;;
54977;SDS011;40873;47.522;19.106;2023-11-18T02:29:35;7.25;;;4.72;;
54977;SDS011;40873;47.522;19.106;2023-11-18T02:32:09;8.98;;;5.18;;
54977;SDS011;40873;47.522;19.106;2023-11-18T02:34:56;7.03;;;4.80;;
54977;SDS011;40873;47.522;19.106;2023-11-18T02:37:32;7.50;;;4.38;;
54977;SDS011;40873;47.522;19.106;2023-11-18T02:40:01;6.78;;;4.78;;
54977;SDS011;40873;47.522;19.106;2023-11-18T02:42:38;9.00;;;5.45;;
54977;SDS011;40873;47.522;19.106;2023-11-18T02:45:07;10.02;;;4.60;;
54977;SDS011;40873;47.522;19.106;2023-11-18T02:47:37;6.50;;;4.22;;
54977;SDS011;40873;47.522;19.106;2023-11-18T02:50:05;7.53;;;4.95;;
54977;SDS011;40873;47.522;19.106;2023-11-18T02:52:37;7.03;;;4.57;;
54977;SDS011;40873;47.522;19.106;2023-11-18T02:55:05;6.38;;;4.35;;
54977;SDS011;40873;47.522;19.106;2023-11-18T02:57:36;7.80;;;5.15;;
54977;SDS011;40873;47.522;19.106;2023-11-18T03:00:06;7.30;;;4.80;;
54977;SDS011;40873;47.522;19.106;2023-11-18T03:02:43;6.30;;;4.22;;
54977;SDS011;40873;47.522;19.106;2023-11-18T03:05:12;8.07;;;5.32;;
54977;SDS011;40873;47.522;19.106;2023-11-18T03:07:42;6.82;;;4.35;;
54977;SDS011;40873;47.522;19.106;2023-11-18T03:12:48;6.47;;;4.32;;
54977;SDS011;40873;47.522;19.106;2023-11-18T03:15:16;6.80;;;4.65;;
54977;SDS011;40873;47.522;19.106;2023-11-18T03:17:46;8.52;;;4.63;;
54977;SDS011;40873;47.522;19.106;2023-11-18T03:20:17;7.28;;;4.35;;
54977;SDS011;40873;47.522;19.106;2023-11-18T03:22:47;7.97;;;4.78;;
54977;SDS011;40873;47.522;19.106;2023-11-18T03:25:15;8.40;;;4.60;;
54977;SDS011;40873;47.522;19.106;2023-11-18T03:27:43;7.75;;;4.30;;
54977;SDS011;40873;47.522;19.106;2023-11-18T03:30:13;8.40;;;4.60;;
54977;SDS011;40873;47.522;19.106;2023-11-18T03:32:41;8.50;;;4.70;;
54977;SDS011;40873;47.522;19.106;2023-11-18T03:35:07;8.25;;;4.82;;
54977;SDS011;40873;47.522;19.106;2023-11-18T03:37:38;7.40;;;4.65;;
54977;SDS011;40873;47.522;19.106;2023-11-18T03:40:09;7.03;;;4.47;;
54977;SDS011;40873;47.522;19.106;2023-11-18T03:42:41;7.95;;;5.07;;
54977;SDS011;40873;47.522;19.106;2023-11-18T03:45:08;7.97;;;4.90;;
54977;SDS011;40873;47.522;19.106;2023-11-18T03:47:37;6.68;;;5.00;;
54977;SDS011;40873;47.522;19.106;2023-11-18T03:50:04;9.23;;;5.03;;
54977;SDS011;40873;47.522;19.106;2023-11-18T03:52:32;7.00;;;4.90;;
54977;SDS011;40873;47.522;19.106;2023-11-18T03:55:02;8.02;;;5.13;;
54977;SDS011;40873;47.522;19.106;2023-11-18T03:57:31;8.52;;;5.70;;
54977;SDS011;40873;47.522;19.106;2023-11-18T03:59:58;8.70;;;5.65;;
54977;SDS011;40873;47.522;19.106;2023-11-18T04:02:25;9.80;;;5.35;;
54977;SDS011;40873;47.522;19.106;2023-11-18T04:04:52;13.02;;;5.75;;
54977;SDS011;40873;47.522;19.106;2023-11-18T04:07:20;9.10;;;5.70;;
54977;SDS011;40873;47.522;19.106;2023-11-18T04:09:48;7.53;;;5.00;;
54977;SDS011;40873;47.522;19.106;2023-11-18T04:12:15;8.98;;;5.85;;
54977;SDS011;40873;47.522;19.106;2023-11-18T04:14:45;10.40;;;5.53;;
54977;SDS011;40873;47.522;19.106;2023-11-18T04:17:12;10.25;;;5.57;;
54977;SDS011;40873;47.522;19.106;2023-11-18T04:19:39;7.75;;;5.28;;
54977;SDS011;40873;47.522;19.106;2023-11-18T04:22:06;9.77;;;5.35;;
54977;SDS011;40873;47.522;19.106;2023-11-18T04:24:33;9.65;;;5.53;;
54977;SDS011;40873;47.522;19.106;2023-11-18T04:27:01;7.05;;;4.63;;
54977;SDS011;40873;47.522;19.106;2023-11-18T04:29:28;9.15;;;5.10;;
54977;SDS011;40873;47.522;19.106;2023-11-18T04:31:56;7.65;;;5.20;;
54977;SDS011;40873;47.522;19.106;2023-11-18T04:34:23;9.35;;;5.50;;
54977;SDS011;40873;47.522;19.106;2023-11-18T04:36:52;9.90;;;5.53;;
54977;SDS011;40873;47.522;19.106;2023-11-18T04:39:19;10.35;;;5.57;;
54977;SDS011;40873;47.522;19.106;2023-11-18T04:41:47;10.13;;;5.65;;
54977;SDS011;40873;47.522;19.106;2023-11-18T04:44:14;8.32;;;5.50;;
54977;SDS011;40873;47.522;19.106;2023-11-18T04:46:43;6.70;;;4.93;;
54977;SDS011;40873;47.522;19.106;2023-11-18T04:49:11;8.32;;;5.43;;
54977;SDS011;40873;47.522;19.106;2023-11-18T04:51:38;10.68;;;5.75;;
54977;SDS011;40873;47.522;19.106;2023-11-18T04:54:06;9.15;;;5.80;;
54977;SDS011;40873;47.522;19.106;2023-11-18T04:56:37;9.63;;;5.20;;
54977;SDS011;40873;47.522;19.106;2023-11-18T04:59:04;7.05;;;4.82;;
54977;SDS011;40873;47.522;19.106;2023-11-18T05:01:32;7.78;;;5.00;;
54977;SDS011;40873;47.522;19.106;2023-11-18T05:03:59;7.53;;;4.95;;
54977;SDS011;40873;47.522;19.106;2023-11-18T05:06:27;8.77;;;5.00;;
54977;SDS011;40873;47.522;19.106;2023-11-18T05:08:53;7.90;;;4.80;;
54977;SDS011;40873;47.522;19.106;2023-11-18T05:11:21;7.60;;;4.90;;
54977;SDS011;40873;47.522;19.106;2023-11-18T05:13:48;8.93;;;5.30;;
54977;SDS011;40873;47.522;19.106;2023-11-18T05:16:16;7.75;;;4.40;;
54977;SDS011;40873;47.522;19.106;2023-11-18T05:18:43;6.55;;;4.70;;
54977;SDS011;40873;47.522;19.106;2023-11-18T05:21:13;7.80;;;4.75;;
54977;SDS011;40873;47.522;19.106;2023-11-18T05:23:39;9.77;;;4.85;;
54977;SDS011;40873;47.522;19.106;2023-11-18T05:26:06;9.07;;;4.60;;
54977;SDS011;40873;47.522;19.106;2023-11-18T05:28:33;6.68;;;4.32;;
54977;SDS011;40873;47.522;19.106;2023-11-18T05:31:01;9.00;;;5.15;;
54977;SDS011;40873;47.522;19.106;2023-11-18T05:33:28;6.53;;;4.50;;
54977;SDS011;40873;47.522;19.106;2023-11-18T05:35:56;6.10;;;4.25;;
54977;SDS011;40873;47.522;19.106;2023-11-18T05:38:23;7.60;;;4.32;;
54977;SDS011;40873;47.522;19.106;2023-11-18T05:40:54;9.13;;;4.43;;
54977;SDS011;40873;47.522;19.106;2023-11-18T05:43:28;5.93;;;4.07;;
54977;SDS011;40873;47.522;19.106;2023-11-18T05:46:03;5.60;;;3.55;;
54977;SDS011;40873;47.522;19.106;2023-11-18T05:48:51;5.35;;;4.03;;
54977;SDS011;40873;47.522;19.106;2023-11-18T05:51:23;11.88;;;3.95;;
54977;SDS011;40873;47.522;19.106;2023-11-18T05:53:52;6.00;;;3.90;;
54977;SDS011;40873;47.522;19.106;2023-11-18T05:56:20;6.72;;;4.35;;
54977;SDS011;40873;47.522;19.106;2023-11-18T05:58:51;6.53;;;4.15;;
54977;SDS011;40873;47.522;19.106;2023-11-18T06:01:22;5.78;;;4.07;;
54977;SDS011;40873;47.522;19.106;2023-11-18T06:03:49;5.35;;;4.15;;
54977;SDS011;40873;47.522;19.106;2023-11-18T06:06:17;6.47;;;4.43;;
54977;SDS011;40873;47.522;19.106;2023-11-18T06:08:49;6.25;;;4.28;;
54977;SDS011;40873;47.522;19.106;2023-11-18T06:11:17;8.30;;;4.53;;
54977;SDS011;40873;47.522;19.106;2023-11-18T06:13:49;6.00;;;4.15;;
54977;SDS011;40873;47.522;19.106;2023-11-18T06:16:19;6.93;;;3.95;;
54977;SDS011;40873;47.522;19.106;2023-11-18T06:18:48;6.88;;;5.13;;
54977;SDS011;40873;47.522;19.106;2023-11-18T06:21:20;7.00;;;4.55;;
54977;SDS011;40873;47.522;19.106;2023-11-18T06:23:53;8.02;;;4.25;;
54977;SDS011;40873;47.522;19.106;2023-11-18T06:26:22;7.65;;;4.40;;
54977;SDS011;40873;47.522;19.106;2023-11-18T06:28:54;7.53;;;4.80;;
54977;SDS011;40873;47.522;19.106;2023-11-18T06:31:22;7.68;;;4.10;;
54977;SDS011;40873;47.522;19.106;2023-11-18T06:33:50;8.48;;;4.13;;
54977;SDS011;40873;47.522;19.106;2023-11-18T06:36:18;5.00;;;3.70;;
54977;SDS011;40873;47.522;19.106;2023-11-18T06:38:50;7.35;;;3.78;;
54977;SDS011;40873;47.522;19.106;2023-11-18T06:41:19;7.00;;;4.65;;
54977;SDS011;40873;47.522;19.106;2023-11-18T06:43:50;7.15;;;4.63;;
54977;SDS011;40873;47.522;19.106;2023-11-18T06:46:21;6.95;;;4.40;;
54977;SDS011;40873;47.522;19.106;2023-11-18T06:49:01;6.68;;;4.32;;
54977;SDS011;40873;47.522;19.106;2023-11-18T06:51:34;6.07;;;4.07;;
54977;SDS011;40873;47.522;19.106;2023-11-18T06:54:03;7.63;;;4.45;;
54977;SDS011;40873;47.522;19.106;2023-11-18T06:56:41;6.90;;;4.18;;
54977;SDS011;40873;47.522;19.106;2023-11-18T06:59:12;6.80;;;4.55;;
54977;SDS011;40873;47.522;19.106;2023-11-18T07:01:43;6.80;;;4.05;;
54977;SDS011;40873;47.522;19.106;2023-11-18T07:04:12;5.60;;;3.75;;
54977;SDS011;40873;47.522;19.106;2023-11-18T07:06:41;5.88;;;3.88;;
54977;SDS011;40873;47.522;19.106;2023-11-18T07:09:10;5.55;;;3.28;;
54977;SDS011;40873;47.522;19.106;2023-11-18T07:11:44;5.45;;;3.20;;
54977;SDS011;40873;47.522;19.106;2023-11-18T07:14:13;6.75;;;3.47;;
54977;SDS011;40873;47.522;19.106;2023-11-18T07:16:42;6.03;;;3.67;;
54977;SDS011;40873;47.522;19.106;2023-11-18T07:19:10;5.07;;;3.20;;
54977;SDS011;40873;47.522;19.106;2023-11-18T07:21:44;6.63;;;3.53;;
54977;SDS011;40873;47.522;19.106;2023-11-18T07:24:11;6.60;;;3.13;;
54977;SDS011;40873;47.522;19.106;2023-11-18T07:26:39;7.22;;;3.53;;
54977;SDS011;40873;47.522;19.106;2023-11-18T07:29:06;5.07;;;2.97;;
54977;SDS011;40873;47.522;19.106;2023-11-18T07:31:36;6.72;;;3.50;;
54977;SDS011;40873;47.522;19.106;2023-11-18T07:34:03;6.05;;;3.30;;
54977;SDS011;40873;47.522;19.106;2023-11-18T07:36:32;5.45;;;3.67;;
54977;SDS011;40873;47.522;19.106;2023-11-18T07:39:00;7.78;;;3.05;;
54977;SDS011;40873;47.522;19.106;2023-11-18T07:41:28;7.15;;;4.03;;
54977;SDS011;40873;47.522;19.106;2023-11-18T07:43:59;5.30;;;2.80;;
54977;SDS011;40873;47.522;19.106;2023-11-18T07:46:27;4.68;;;2.95;;
54977;SDS011;40873;47.522;19.106;2023-11-18T07:48:57;4.22;;;2.60;;
54977;SDS011;40873;47.522;19.106;2023-11-18T07:51:25;4.40;;;2.70;;
54977;SDS011;40873;47.522;19.106;2023-11-18T07:53:52;4.45;;;3.03;;
54977;SDS011;40873;47.522;19.106;2023-11-18T07:56:22;4.45;;;2.50;;
54977;SDS011;40873;47.522;19.106;2023-11-18T07:58:49;4.85;;;3.13;;
54977;SDS011;40873;47.522;19.106;2023-11-18T08:01:19;5.15;;;2.85;;
54977;SDS011;40873;47.522;19.106;2023-11-18T08:03:48;3.80;;;2.63;;
54977;SDS011;40873;47.522;19.106;2023-11-18T08:06:17;3.58;;;2.40;;
54977;SDS011;40873;47.522;19.106;2023-11-18T08:08:44;4.32;;;2.80;;
54977;SDS011;40873;47.522;19.106;2023-11-18T08:11:12;4.63;;;2.50;;
54977;SDS011;40873;47.522;19.106;2023-11-18T08:13:39;4.78;;;2.67;;
54977;SDS011;40873;47.522;19.106;2023-11-18T08:16:07;5.57;;;2.75;;
54977;SDS011;40873;47.522;19.106;2023-11-18T08:18:35;4.53;;;2.70;;
54977;SDS011;40873;47.522;19.106;2023-11-18T08:21:04;2.65;;;1.80;;
54977;SDS011;40873;47.522;19.106;2023-11-18T08:23:33;4.93;;;2.03;;
54977;SDS011;40873;47.522;19.106;2023-11-18T08:26:01;3.65;;;2.13;;
54977;SDS011;40873;47.522;19.106;2023-11-18T08:28:28;4.28;;;2.13;;
54977;SDS011;40873;47.522;19.106;2023-11-18T08:30:55;4.75;;;2.50;;
54977;SDS011;40873;47.522;19.106;2023-11-18T08:33:22;5.15;;;2.50;;
54977;SDS011;40873;47.522;19.106;2023-11-18T08:35:52;4.78;;;2.38;;
54977;SDS011;40873;47.522;19.106;2023-11-18T08:38:19;4.32;;;2.20;;
54977;SDS011;40873;47.522;19.106;2023-11-18T08:40:47;3.42;;;2.30;;
54977;SDS011;40873;47.522;19.106;2023-11-18T08:43:15;4.25;;;2.30;;
54977;SDS011;40873;47.522;19.106;2023-11-18T08:45:44;3.53;;;1.92;;
54977;SDS011;40873;47.522;19.106;2023-11-18T08:48:11;2.75;;;2.10;;
54977;SDS011;40873;47.522;19.106;2023-11-18T08:50:39;3.22;;;2.03;;
54977;SDS011;40873;47.522;19.106;2023-11-18T08:53:06;2.88;;;2.13;;
54977;SDS011;40873;47.522;19.106;2023-11-18T08:55:37;4.80;;;2.17;;
54977;SDS011;40873;47.522;19.106;2023-11-18T08:58:12;4.55;;;2.33;;
54977;SDS011;40873;47.522;19.106;2023-11-18T09:00:53;3.83;;;2.05;;
54977;SDS011;40873;47.522;19.106;2023-11-18T09:03:25;3.00;;;2.10;;
54977;SDS011;40873;47.522;19.106;2023-11-18T09:06:01;4.53;;;1.88;;
54977;SDS011;40873;47.522;19.106;2023-11-18T09:08:37;2.55;;;1.65;;
54977;SDS011;40873;47.522;19.106;2023-11-18T09:11:10;2.67;;;1.73;;
54977;SDS011;40873;47.522;19.106;2023-11-18T09:13:42;3.13;;;1.88;;
54977;SDS011;40873;47.522;19.106;2023-11-18T09:16:11;2.83;;;1.60;;
54977;SDS011;40873;47.522;19.106;2023-11-18T09:18:39;3.03;;;1.55;;
54977;SDS011;40873;47.522;19.106;2023-11-18T09:21:12;7.32;;;1.55;;
54977;SDS011;40873;47.522;19.106;2023-11-18T09:23:45;2.75;;;1.33;;
54977;SDS011;40873;47.522;19.106;2023-11-18T09:26:14;3.33;;;1.45;;
54977;SDS011;40873;47.522;19.106;2023-11-18T09:28:43;2.42;;;1.30;;
54977;SDS011;40873;47.522;19.106;2023-11-18T09:31:13;3.05;;;1.40;;
54977;SDS011;40873;47.522;19.106;2023-11-18T09:33:41;2.13;;;1.33;;
54977;SDS011;40873;47.522;19.106;2023-11-18T09:36:19;2.95;;;1.25;;
54977;SDS011;40873;47.522;19.106;2023-11-18T09:38:48;2.55;;;1.20;;
54977;SDS011;40873;47.522;19.106;2023-11-18T09:41:16;2.40;;;1.40;;
54977;SDS011;40873;47.522;19.106;2023-11-18T09:43:44;2.85;;;1.48;;
54977;SDS011;40873;47.522;19.106;2023-11-18T09:46:14;2.97;;;1.50;;
54977;SDS011;40873;47.522;19.106;2023-11-18T09:48:51;3.30;;;1.33;;
54977;SDS011;40873;47.522;19.106;2023-11-18T09:51:27;3.08;;;1.67;;
54977;SDS011;40873;47.522;19.106;2023-11-18T09:54:08;2.45;;;1.40;;
54977;SDS011;40873;47.522;19.106;2023-11-18T09:56:48;3.50;;;1.73;;
54977;SDS011;40873;47.522;19.106;2023-11-18T09:59:25;2.38;;;1.48;;
54977;SDS011;40873;47.522;19.106;2023-11-18T10:04:24;3.50;;;1.77;;
54977;SDS011;40873;47.522;19.106;2023-11-18T10:06:54;2.88;;;1.90;;
54977;SDS011;40873;47.522;19.106;2023-11-18T10:09:26;2.78;;;1.60;;
54977;SDS011;40873;47.522;19.106;2023-11-18T10:12:04;3.15;;;1.38;;
54977;SDS011;40873;47.522;19.106;2023-11-18T10:14:33;2.35;;;1.42;;
54977;SDS011;40873;47.522;19.106;2023-11-18T10:17:06;2.72;;;1.30;;
54977;SDS011;40873;47.522;19.106;2023-11-18T10:19:50;3.75;;;1.50;;
54977;SDS011;40873;47.522;19.106;2023-11-18T10:22:25;2.83;;;1.40;;
54977;SDS011;40873;47.522;19.106;2023-11-18T10:24:56;3.50;;;1.10;;
54977;SDS011;40873;47.522;19.106;2023-11-18T10:27:25;2.10;;;1.35;;
54977;SDS011;40873;47.522;19.106;2023-11-18T10:29:56;2.10;;;1.30;;
54977;SDS011;40873;47.522;19.106;2023-11-18T10:32:58;3.97;;;1.73;;
54977;SDS011;40873;47.522;19.106;2023-11-18T10:35:33;2.17;;;1.25;;
54977;SDS011;40873;47.522;19.106;2023-11-18T10:38:03;2.03;;;0.93;;
54977;SDS011;40873;47.522;19.106;2023-11-18T10:40:33;2.10;;;1.25;;
54977;SDS011;40873;47.522;19.106;2023-11-18T10:43:03;2.47;;;1.13;;
54977;SDS011;40873;47.522;19.106;2023-11-18T10:45:36;1.27;;;0.77;;
54977;SDS011;40873;47.522;19.106;2023-11-18T10:48:11;1.80;;;0.90;;
54977;SDS011;40873;47.522;19.106;2023-11-18T10:50:44;1.63;;;0.90;;
54977;SDS011;40873;47.522;19.106;2023-11-18T10:53:13;1.83;;;0.90;;
54977;SDS011;40873;47.522;19.106;2023-11-18T10:55:43;2.50;;;1.25;;
54977;SDS011;40873;47.522;19.106;2023-11-18T10:58:10;2.00;;;0.90;;
54977;SDS011;40873;47.522;19.106;2023-11-18T11:00:51;2.03;;;1.00;;
54977;SDS011;40873;47.522;19.106;2023-11-18T11:03:27;2.30;;;0.77;;
54977;SDS011;40873;47.522;19.106;2023-11-18T11:05:59;3.97;;;1.55;;
54977;SDS011;40873;47.522;19.106;2023-11-18T11:08:30;3.75;;;0.80;;
54977;SDS011;40873;47.522;19.106;2023-11-18T11:11:07;3.55;;;1.10;;
54977;SDS011;40873;47.522;19.106;2023-11-18T11:13:35;3.53;;;0.85;;
54977;SDS011;40873;47.522;19.106;2023-11-18T11:16:04;2.17;;;1.17;;
54977;SDS011;40873;47.522;19.106;2023-11-18T11:18:37;2.03;;;0.98;;
54977;SDS011;40873;47.522;19.106;2023-11-18T11:21:14;1.70;;;0.73;;
54977;SDS011;40873;47.522;19.106;2023-11-18T11:34:50;1.45;;;0.93;;
54977;SDS011;40873;47.522;19.106;2023-11-18T11:37:23;1.60;;;1.38;;
54977;SDS011;40873;47.522;19.106;2023-11-18T11:42:25;1.48;;;0.80;;
54977;SDS011;40873;47.522;19.106;2023-11-18T11:44:53;2.53;;;0.90;;
54977;SDS011;40873;47.522;19.106;2023-11-18T11:47:22;2.20;;;0.77;;
54977;SDS011;40873;47.522;19.106;2023-11-18T11:50:06;1.58;;;0.68;;
54977;SDS011;40873;47.522;19.106;2023-11-18T11:52:50;4.95;;;1.05;;
54977;SDS011;40873;47.522;19.106;2023-11-18T11:58:25;1.75;;;0.80;;
54977;SDS011;40873;47.522;19.106;2023-11-18T12:00:53;0.95;;;0.50;;
54977;SDS011;40873;47.522;19.106;2023-11-18T12:03:23;1.38;;;0.63;;
54977;SDS011;40873;47.522;19.106;2023-11-18T12:05:54;1.20;;;0.63;;
54977;SDS011;40873;47.522;19.106;2023-11-18T12:08:22;1.30;;;0.60;;
54977;SDS011;40873;47.522;19.106;2023-11-18T12:10:53;2.03;;;0.73;;
54977;SDS011;40873;47.522;19.106;2023-11-18T12:13:22;1.40;;;0.70;;
54977;SDS011;40873;47.522;19.106;2023-11-18T12:15:53;1.10;;;0.52;;
54977;SDS011;40873;47.522;19.106;2023-11-18T12:18:24;1.38;;;0.70;;
54977;SDS011;40873;47.522;19.106;2023-11-18T12:20:52;0.82;;;0.50;;
54977;SDS011;40873;47.522;19.106;2023-11-18T12:23:24;1.50;;;0.65;;
54977;SDS011;40873;47.522;19.106;2023-11-18T12:25:52;1.70;;;0.52;;
54977;SDS011;40873;47.522;19.106;2023-11-18T12:28:25;1.35;;;0.70;;
54977;SDS011;40873;47.522;19.106;2023-11-18T12:31:04;1.65;;;0.63;;
54977;SDS011;40873;47.522;19.106;2023-11-18T12:42:03;1.27;;;0.80;;
54977;SDS011;40873;47.522;19.106;2023-11-18T12:44:37;1.55;;;0.65;;
54977;SDS011;40873;47.522;19.106;2023-11-18T12:47:08;1.30;;;0.80;;
54977;SDS011;40873;47.522;19.106;2023-11-18T12:49:45;1.75;;;0.60;;
54977;SDS011;40873;47.522;19.106;2023-11-18T12:52:21;1.60;;;0.60;;
54977;SDS011;40873;47.522;19.106;2023-11-18T12:54:49;1.90;;;0.50;;
54977;SDS011;40873;47.522;19.106;2023-11-18T12:57:28;1.80;;;0.82;;
54977;SDS011;40873;47.522;19.106;2023-11-18T12:59:58;1.95;;;0.90;;
54977;SDS011;40873;47.522;19.106;2023-11-18T13:02:27;1.25;;;0.77;;
54977;SDS011;40873;47.522;19.106;2023-11-18T13:04:55;1.20;;;0.77;;
54977;SDS011;40873;47.522;19.106;2023-11-18T13:07:22;2.13;;;1.02;;
54977;SDS011;40873;47.522;19.106;2023-11-18T13:09:51;2.45;;;1.02;;
54977;SDS011;40873;47.522;19.106;2023-11-18T13:12:21;1.73;;;0.73;;
54977;SDS011;40873;47.522;19.106;2023-11-18T13:14:50;1.77;;;0.80;;
54977;SDS011;40873;47.522;19.106;2023-11-18T13:17:18;1.75;;;0.80;;
54977;SDS011;40873;47.522;19.106;2023-11-18T13:19:45;2.13;;;0.75;;
54977;SDS011;40873;47.522;19.106;2023-11-18T13:22:14;1.40;;;0.65;;
54977;SDS011;40873;47.522;19.106;2023-11-18T13:24:45;1.33;;;0.90;;
54977;SDS011;40873;47.522;19.106;2023-11-18T13:27:13;1.80;;;0.63;;
54977;SDS011;40873;47.522;19.106;2023-11-18T13:29:48;1.53;;;0.80;;
54977;SDS011;40873;47.522;19.106;2023-11-18T13:32:17;1.80;;;0.80;;
54977;SDS011;40873;47.522;19.106;2023-11-18T13:34:49;1.42;;;0.75;;
54977;SDS011;40873;47.522;19.106;2023-11-18T13:37:18;2.45;;;0.90;;
54977;SDS011;40873;47.522;19.106;2023-11-18T13:39:53;2.08;;;1.00;;
54977;SDS011;40873;47.522;19.106;2023-11-18T13:42:24;2.05;;;0.85;;
54977;SDS011;40873;47.522;19.106;2023-11-18T13:45:04;1.90;;;1.17;;
54977;SDS011;40873;47.522;19.106;2023-11-18T13:48:01;1.52;;;0.90;;
54977;SDS011;40873;47.522;19.106;2023-11-18T13:50:28;3.40;;;1.13;;
54977;SDS011;40873;47.522;19.106;2023-11-18T13:52:56;1.67;;;1.00;;
54977;SDS011;40873;47.522;19.106;2023-11-18T13:55:24;2.40;;;0.77;;
54977;SDS011;40873;47.522;19.106;2023-11-18T13:57:55;1.08;;;0.68;;
54977;SDS011;40873;47.522;19.106;2023-11-18T14:00:25;0.90;;;0.60;;
54977;SDS011;40873;47.522;19.106;2023-11-18T14:02:58;2.22;;;0.85;;
54977;SDS011;40873;47.522;19.106;2023-11-18T14:05:26;2.00;;;0.80;;
54977;SDS011;40873;47.522;19.106;2023-11-18T14:07:54;2.90;;;1.15;;
54977;SDS011;40873;47.522;19.106;2023-11-18T14:10:35;1.80;;;0.65;;
54977;SDS011;40873;47.522;19.106;2023-11-18T14:13:07;1.02;;;0.68;;
54977;SDS011;40873;47.522;19.106;2023-11-18T14:15:38;1.88;;;0.82;;
54977;SDS011;40873;47.522;19.106;2023-11-18T14:18:07;3.92;;;0.80;;
54977;SDS011;40873;47.522;19.106;2023-11-18T14:20:36;2.42;;;1.17;;
54977;SDS011;40873;47.522;19.106;2023-11-18T14:23:03;2.10;;;1.00;;
54977;SDS011;40873;47.522;19.106;2023-11-18T14:25:33;1.55;;;0.95;;
54977;SDS011;40873;47.522;19.106;2023-11-18T14:28:01;2.33;;;0.88;;
54977;SDS011;40873;47.522;19.106;2023-11-18T14:30:29;2.38;;;1.13;;
54977;SDS011;40873;47.522;19.106;2023-11-18T14:32:57;1.80;;;0.85;;
54977;SDS011;40873;47.522;19.106;2023-11-18T14:35:24;2.97;;;1.40;;
54977;SDS011;40873;47.522;19.106;2023-11-18T14:37:56;2.03;;;0.63;;
54977;SDS011;40873;47.522;19.106;2023-11-18T14:40:23;2.05;;;0.90;;
54977;SDS011;40873;47.522;19.106;2023-11-18T14:42:50;1.77;;;0.93;;
54977;SDS011;40873;47.522;19.106;2023-11-18T14:45:18;4.13;;;1.30;;
54977;SDS011;40873;47.522;19.106;2023-11-18T14:47:46;2.42;;;1.02;;
54977;SDS011;40873;47.522;19.106;2023-11-18T14:50:18;4.05;;;1.50;;
54977;SDS011;40873;47.522;19.106;2023-11-18T14:52:46;2.25;;;1.00;;
54977;SDS011;40873;47.522;19.106;2023-11-18T14:55:15;1.65;;;0.85;;
54977;SDS011;40873;47.522;19.106;2023-11-18T14:57:44;1.52;;;0.90;;
54977;SDS011;40873;47.522;19.106;2023-11-18T15:00:12;2.17;;;1.38;;
54977;SDS011;40873;47.522;19.106;2023-11-18T15:02:49;2.17;;;0.98;;
54977;SDS011;40873;47.522;19.106;2023-11-18T15:05:21;2.45;;;0.98;;
54977;SDS011;40873;47.522;19.106;2023-11-18T15:07:50;4.20;;;1.10;;
54977;SDS011;40873;47.522;19.106;2023-11-18T15:10:22;3.15;;;1.13;;
54977;SDS011;40873;47.522;19.106;2023-11-18T15:12:51;1.80;;;1.00;;
54977;SDS011;40873;47.522;19.106;2023-11-18T15:15:23;2.97;;;1.42;;
54977;SDS011;40873;47.522;19.106;2023-11-18T15:17:59;3.05;;;1.30;;
54977;SDS011;40873;47.522;19.106;2023-11-18T15:20:30;3.58;;;1.23;;